Time,TemperatureF,DewpointF,PressureIn,WindDirection,WindDirectionDegrees,WindSpeedMPH,WindSpeedGustMPH,Humidity,HourlyPrecipIn,Conditions,Clouds,dailyrainin,SoftwareType,DateUTC
2013-10-14 00:03:00,35.1,24.9,0.00,NNW,346,0.0,0.0,66,0.00,,,0.00,VWS V13.01,2013-10-14 05:03:00,
2013-10-14 00:08:00,34.9,24.7,0.00,NNW,346,0.0,0.0,66,0.00,,,0.00,VWS V13.01,2013-10-14 05:08:00,
2013-10-14 00:13:00,34.9,25.0,0.00,NNW,346,0.0,0.0,67,0.00,,,0.00,VWS V13.01,2013-10-14 05:13:00,
2013-10-14 00:18:00,34.9,25.0,0.00,NNW,346,0.0,0.0,67,0.00,,,0.00,VWS V13.01,2013-10-14 05:18:00,
2013-10-14 00:23:00,34.9,25.4,0.00,NNW,346,0.0,0.0,68,0.00,,,0.00,VWS V13.01,2013-10-14 05:23:00,
2013-10-14 00:28:00,34.9,25.4,0.00,NNW,346,0.0,0.0,68,0.00,,,0.00,VWS V13.01,2013-10-14 05:28:00,
2013-10-14 00:33:00,34.7,25.2,0.00,NNW,346,0.0,0.0,68,0.00,,,0.00,VWS V13.01,2013-10-14 05:33:00,
2013-10-14 00:38:00,34.5,25.1,0.00,NNW,346,0.0,0.0,68,0.00,,,0.00,VWS V13.01,2013-10-14 05:38:00,
2013-10-14 00:43:00,34.5,25.4,0.00,NNW,346,0.0,0.0,69,0.00,,,0.00,VWS V13.01,2013-10-14 05:43:00,
2013-10-14 00:48:00,34.5,25.4,0.00,NNW,346,0.0,0.0,69,0.00,,,0.00,VWS V13.01,2013-10-14 05:48:00,
2013-10-14 00:53:00,34.5,25.4,0.00,NNW,346,0.0,0.0,69,0.00,,,0.00,VWS V13.01,2013-10-14 05:53:00,
2013-10-14 00:58:00,34.5,25.8,0.00,NNW,346,0.0,0.0,70,0.00,,,0.00,VWS V13.01,2013-10-14 05:58:00,
2013-10-14 01:03:00,34.5,25.8,0.00,NNW,346,0.0,0.0,70,0.00,,,0.00,VWS V13.01,2013-10-14 06:03:00,
2013-10-14 01:08:00,34.3,25.6,0.00,NNW,346,0.0,0.0,70,0.00,,,0.00,VWS V13.01,2013-10-14 06:08:00,
2013-10-14 01:13:00,34.2,25.4,0.00,NNW,346,0.0,0.0,70,0.00,,,0.00,VWS V13.01,2013-10-14 06:13:00,
2013-10-14 01:18:00,34.3,25.6,0.00,NNW,346,0.0,0.0,70,0.00,,,0.00,VWS V13.01,2013-10-14 06:18:00,
2013-10-14 01:23:00,34.2,25.8,0.00,NNW,346,0.0,0.0,71,0.00,,,0.00,VWS V13.01,2013-10-14 06:23:00,
2013-10-14 01:28:00,34.0,25.2,0.00,NNW,346,0.0,0.0,70,0.00,,,0.00,VWS V13.01,2013-10-14 06:28:00,
2013-10-14 01:33:00,34.0,25.6,0.00,NNW,346,0.0,0.0,71,0.00,,,0.00,VWS V13.01,2013-10-14 06:33:00,
2013-10-14 01:38:00,34.3,25.9,0.00,NNW,346,0.0,0.0,71,0.00,,,0.00,VWS V13.01,2013-10-14 06:38:00,
2013-10-14 01:43:00,34.3,25.9,0.00,NNW,346,0.0,0.0,71,0.00,,,0.00,VWS V13.01,2013-10-14 06:43:00,
2013-10-14 01:48:00,34.3,25.9,0.00,NNW,346,0.0,0.0,71,0.00,,,0.00,VWS V13.01,2013-10-14 06:48:00,
2013-10-14 01:53:00,34.3,25.9,0.00,NNW,346,0.0,0.0,71,0.00,,,0.00,VWS V13.01,2013-10-14 06:53:00,
2013-10-14 01:58:00,34.5,26.1,0.00,NNW,346,0.0,0.0,71,0.00,,,0.00,VWS V13.01,2013-10-14 06:58:00,
2013-10-14 02:03:00,34.5,26.1,0.00,NNW,346,0.0,0.0,71,0.00,,,0.00,VWS V13.01,2013-10-14 07:03:00,
2013-10-14 02:08:00,34.2,25.8,0.00,NNW,346,0.0,0.0,71,0.00,,,0.00,VWS V13.01,2013-10-14 07:08:00,
2013-10-14 02:13:00,34.0,25.6,0.00,NNW,346,0.0,0.0,71,0.00,,,0.00,VWS V13.01,2013-10-14 07:13:00,
2013-10-14 02:18:00,33.8,25.4,0.00,NNW,346,0.0,0.0,71,0.00,,,0.00,VWS V13.01,2013-10-14 07:18:00,
2013-10-14 02:23:00,33.6,25.2,0.00,NNW,346,0.0,0.0,71,0.00,,,0.00,VWS V13.01,2013-10-14 07:23:00,
2013-10-14 02:28:00,33.3,24.9,0.00,NNW,346,0.0,0.0,71,0.00,,,0.00,VWS V13.01,2013-10-14 07:28:00,
2013-10-14 02:33:00,33.3,24.9,0.00,NNW,346,0.0,0.0,71,0.00,,,0.00,VWS V13.01,2013-10-14 07:33:00,
2013-10-14 02:38:00,33.3,24.9,0.00,NNW,346,0.0,0.0,71,0.00,,,0.00,VWS V13.01,2013-10-14 07:38:00,
2013-10-14 02:43:00,33.3,24.9,0.00,NNW,346,0.0,0.0,71,0.00,,,0.00,VWS V13.01,2013-10-14 07:43:00,
2013-10-14 02:48:00,33.3,24.9,0.00,NNW,346,0.0,0.0,71,0.00,,,0.00,VWS V13.01,2013-10-14 07:48:00,
2013-10-14 02:53:00,33.1,24.7,0.00,NNW,346,0.0,0.0,71,0.00,,,0.00,VWS V13.01,2013-10-14 07:53:00,
2013-10-14 02:58:00,32.9,24.5,0.00,NNW,346,0.0,0.0,71,0.00,,,0.00,VWS V13.01,2013-10-14 07:58:00,
2013-10-14 03:03:00,32.7,24.4,0.00,NNW,346,0.0,0.0,71,0.00,,,0.00,VWS V13.01,2013-10-14 08:03:00,
2013-10-14 03:08:00,32.7,24.7,0.00,NNW,346,0.0,0.0,72,0.00,,,0.00,VWS V13.01,2013-10-14 08:08:00,
2013-10-14 03:13:00,32.7,24.7,0.00,NNW,346,0.0,0.0,72,0.00,,,0.00,VWS V13.01,2013-10-14 08:13:00,
2013-10-14 03:18:00,33.1,25.0,0.00,NNW,346,0.0,0.0,72,0.00,,,0.00,VWS V13.01,2013-10-14 08:18:00,
2013-10-14 03:23:00,33.3,25.2,0.00,NNW,346,0.0,0.0,72,0.00,,,0.00,VWS V13.01,2013-10-14 08:23:00,
2013-10-14 03:28:00,33.4,25.4,0.00,NNW,346,0.0,0.0,72,0.00,,,0.00,VWS V13.01,2013-10-14 08:28:00,
2013-10-14 03:33:00,33.4,25.4,0.00,NNW,346,0.0,0.0,72,0.00,,,0.00,VWS V13.01,2013-10-14 08:33:00,
2013-10-14 03:38:00,33.4,25.4,0.00,NNW,346,0.0,0.0,72,0.00,,,0.00,VWS V13.01,2013-10-14 08:38:00,
2013-10-14 03:43:00,33.4,25.4,0.00,NNW,346,0.0,0.0,72,0.00,,,0.00,VWS V13.01,2013-10-14 08:43:00,
2013-10-14 03:48:00,33.6,25.6,0.00,NNW,346,0.0,0.0,72,0.00,,,0.00,VWS V13.01,2013-10-14 08:48:00,
2013-10-14 03:53:00,33.8,25.4,0.00,NNW,346,0.0,0.0,71,0.00,,,0.00,VWS V13.01,2013-10-14 08:53:00,
2013-10-14 03:58:00,33.8,25.4,0.00,NNW,346,0.0,0.0,71,0.00,,,0.00,VWS V13.01,2013-10-14 08:58:00,
2013-10-14 04:03:00,34.0,25.6,0.00,NNW,346,0.0,0.0,71,0.00,,,0.00,VWS V13.01,2013-10-14 09:03:00,
2013-10-14 04:08:00,33.6,25.2,0.00,NNW,346,0.0,0.0,71,0.00,,,0.00,VWS V13.01,2013-10-14 09:08:00,
2013-10-14 04:13:00,33.4,25.1,0.00,NNW,346,0.0,0.0,71,0.00,,,0.00,VWS V13.01,2013-10-14 09:13:00,
2013-10-14 04:18:00,33.6,25.6,0.00,NNW,346,0.0,0.0,72,0.00,,,0.00,VWS V13.01,2013-10-14 09:18:00,
2013-10-14 04:23:00,33.6,25.6,0.00,NNW,346,0.0,0.0,72,0.00,,,0.00,VWS V13.01,2013-10-14 09:23:00,
2013-10-14 04:28:00,33.4,25.1,0.00,NNW,346,0.0,0.0,71,0.00,,,0.00,VWS V13.01,2013-10-14 09:28:00,
2013-10-14 04:33:00,33.3,24.9,0.00,NNW,346,0.0,0.0,71,0.00,,,0.00,VWS V13.01,2013-10-14 09:33:00,
2013-10-14 04:38:00,32.7,24.4,0.00,NNW,346,0.0,0.0,71,0.00,,,0.00,VWS V13.01,2013-10-14 09:38:00,
2013-10-14 04:43:00,32.7,24.4,0.00,NNW,346,0.0,0.0,71,0.00,,,0.00,VWS V13.01,2013-10-14 09:43:00,
2013-10-14 04:48:00,32.5,24.5,0.00,NNW,330,2.7,3.1,72,0.00,,,0.00,VWS V13.01,2013-10-14 09:48:00,
2013-10-14 04:53:00,32.5,24.5,0.00,NW,314,2.7,2.7,72,0.00,,,0.00,VWS V13.01,2013-10-14 09:53:00,
2013-10-14 04:58:00,32.5,24.5,0.00,NW,321,0.0,0.0,72,0.00,,,0.00,VWS V13.01,2013-10-14 09:58:00,
2013-10-14 05:03:00,32.5,24.5,0.00,NW,315,0.0,0.0,72,0.00,,,0.00,VWS V13.01,2013-10-14 10:03:00,
2013-10-14 05:08:00,32.4,24.4,0.00,NW,314,0.0,0.0,72,0.00,,,0.00,VWS V13.01,2013-10-14 10:08:00,
2013-10-14 05:13:00,32.2,24.2,0.00,NW,314,0.0,0.0,72,0.00,,,0.00,VWS V13.01,2013-10-14 10:13:00,
2013-10-14 05:18:00,31.8,23.5,0.00,NW,314,0.0,0.0,71,0.00,,,0.00,VWS V13.01,2013-10-14 10:18:00,
2013-10-14 05:23:00,31.8,23.5,0.00,NW,314,0.0,0.0,71,0.00,,,0.00,VWS V13.01,2013-10-14 10:23:00,
2013-10-14 05:28:00,31.8,23.5,0.00,NW,314,0.0,0.0,71,0.00,,,0.00,VWS V13.01,2013-10-14 10:28:00,
2013-10-14 05:33:00,32.0,23.7,0.00,NW,314,0.0,0.0,71,0.00,,,0.00,VWS V13.01,2013-10-14 10:33:00,
2013-10-14 05:38:00,32.2,24.2,0.00,NW,321,0.0,0.0,72,0.00,,,0.00,VWS V13.01,2013-10-14 10:38:00,
2013-10-14 05:43:00,31.6,23.3,0.00,NW,321,0.0,0.0,71,0.00,,,0.00,VWS V13.01,2013-10-14 10:43:00,
2013-10-14 05:48:00,31.6,23.7,0.00,NW,321,0.0,0.0,72,0.00,,,0.00,VWS V13.01,2013-10-14 10:48:00,
2013-10-14 05:53:00,32.0,24.0,0.00,NW,326,2.2,2.2,72,0.00,,,0.00,VWS V13.01,2013-10-14 10:53:00,
2013-10-14 05:58:00,32.0,24.0,0.00,NNW,331,0.0,0.0,72,0.00,,,0.00,VWS V13.01,2013-10-14 10:58:00,
2013-10-14 06:03:00,32.2,24.2,0.00,NNW,331,0.0,0.0,72,0.00,,,0.00,VWS V13.01,2013-10-14 11:03:00,
2013-10-14 06:08:00,32.4,24.4,0.00,NNW,331,0.0,0.0,72,0.00,,,0.00,VWS V13.01,2013-10-14 11:08:00,
2013-10-14 06:13:00,32.4,24.4,0.00,NNW,331,0.0,0.0,72,0.00,,,0.00,VWS V13.01,2013-10-14 11:13:00,
2013-10-14 06:18:00,32.4,24.4,0.00,NNW,331,0.0,0.0,72,0.00,,,0.00,VWS V13.01,2013-10-14 11:18:00,
2013-10-14 06:23:00,32.2,24.2,0.00,NNW,331,0.0,0.0,72,0.00,,,0.00,VWS V13.01,2013-10-14 11:23:00,
2013-10-14 06:28:00,32.2,24.2,0.00,NNW,331,0.0,0.0,72,0.00,,,0.00,VWS V13.01,2013-10-14 11:28:00,
2013-10-14 06:33:00,31.8,23.8,0.00,NNW,331,0.0,0.0,72,0.00,,,0.00,VWS V13.01,2013-10-14 11:33:00,
2013-10-14 06:38:00,31.5,23.5,0.00,NNW,331,0.0,0.0,72,0.00,,,0.00,VWS V13.01,2013-10-14 11:38:00,
2013-10-14 06:43:00,31.6,23.7,0.00,NNW,331,0.0,0.0,72,0.00,,,0.00,VWS V13.01,2013-10-14 11:43:00,
2013-10-14 06:48:00,32.0,24.3,0.00,NNW,331,0.0,0.0,73,0.00,,,0.00,VWS V13.01,2013-10-14 11:48:00,
2013-10-14 06:53:00,32.0,24.3,0.00,NNW,331,0.0,0.0,73,0.00,,,0.00,VWS V13.01,2013-10-14 11:53:00,
2013-10-14 06:58:00,32.0,24.3,0.00,NNW,331,0.0,0.0,73,0.00,,,0.00,VWS V13.01,2013-10-14 11:58:00,
2013-10-14 07:03:00,32.2,24.5,0.00,North,353,0.0,0.0,73,0.00,,,0.00,VWS V13.01,2013-10-14 12:03:00,
2013-10-14 07:08:00,32.4,24.7,0.00,North,353,0.0,0.0,73,0.00,,,0.00,VWS V13.01,2013-10-14 12:08:00,
2013-10-14 07:13:00,32.5,24.9,0.00,North,353,0.0,0.0,73,0.00,,,0.00,VWS V13.01,2013-10-14 12:13:00,
2013-10-14 07:18:00,32.7,25.0,0.00,North,353,0.0,0.0,73,0.00,,,0.00,VWS V13.01,2013-10-14 12:18:00,
2013-10-14 07:23:00,33.1,25.4,0.00,North,353,0.0,0.0,73,0.00,,,0.00,VWS V13.01,2013-10-14 12:23:00,
2013-10-14 07:28:00,33.1,25.4,0.00,North,353,0.0,0.0,73,0.00,,,0.00,VWS V13.01,2013-10-14 12:28:00,
2013-10-14 07:33:00,33.3,25.6,0.00,North,353,0.0,0.0,73,0.00,,,0.00,VWS V13.01,2013-10-14 12:33:00,
2013-10-14 07:38:00,33.1,25.4,0.00,North,353,0.0,0.0,73,0.00,,,0.00,VWS V13.01,2013-10-14 12:38:00,
2013-10-14 07:43:00,33.3,25.2,0.00,North,353,0.0,0.0,72,0.00,,,0.00,VWS V13.01,2013-10-14 12:43:00,
2013-10-14 07:48:00,33.6,25.9,0.00,North,353,0.0,0.0,73,0.00,,,0.00,VWS V13.01,2013-10-14 12:48:00,
2013-10-14 07:53:00,33.8,26.1,0.00,ESE,112,0.0,0.0,73,0.00,,,0.00,VWS V13.01,2013-10-14 12:53:00,
2013-10-14 07:58:00,33.8,25.7,0.00,ENE,61,0.0,0.0,72,0.00,,,0.00,VWS V13.01,2013-10-14 12:58:00,
2013-10-14 08:03:00,33.8,25.7,0.00,North,353,0.0,0.0,72,0.00,,,0.00,VWS V13.01,2013-10-14 13:03:00,
2013-10-14 08:08:00,33.8,25.7,0.00,NNW,340,0.0,0.0,72,0.00,,,0.00,VWS V13.01,2013-10-14 13:08:00,
2013-10-14 08:13:00,33.8,26.1,0.00,NNW,342,2.2,3.1,73,0.00,,,0.00,VWS V13.01,2013-10-14 13:13:00,
2013-10-14 08:18:00,33.8,26.1,0.00,NNW,337,2.2,2.2,73,0.00,,,0.00,VWS V13.01,2013-10-14 13:18:00,
2013-10-14 08:23:00,34.0,26.2,0.00,North,353,0.0,0.0,73,0.00,,,0.00,VWS V13.01,2013-10-14 13:23:00,
2013-10-14 08:28:00,34.0,26.6,0.00,North,353,0.0,0.0,74,0.00,,,0.00,VWS V13.01,2013-10-14 13:28:00,
2013-10-14 08:33:00,34.2,26.8,0.00,NNW,338,0.0,0.0,74,0.00,,,0.00,VWS V13.01,2013-10-14 13:33:00,
2013-10-14 08:38:00,34.3,26.9,0.00,NNW,329,0.0,0.0,74,0.00,,,0.00,VWS V13.01,2013-10-14 13:38:00,
2013-10-14 08:43:00,34.5,27.1,0.00,NNW,329,0.0,0.0,74,0.00,,,0.00,VWS V13.01,2013-10-14 13:43:00,
2013-10-14 08:48:00,34.7,27.3,0.00,NNW,329,0.0,0.0,74,0.00,,,0.00,VWS V13.01,2013-10-14 13:48:00,
2013-10-14 08:53:00,34.7,27.3,0.00,NNW,329,0.0,0.0,74,0.00,,,0.00,VWS V13.01,2013-10-14 13:53:00,
2013-10-14 08:58:00,34.9,27.5,0.00,NNW,329,0.0,0.0,74,0.00,,,0.00,VWS V13.01,2013-10-14 13:58:00,
2013-10-14 09:03:00,34.9,27.5,0.00,NW,326,0.0,0.0,74,0.00,,,0.00,VWS V13.01,2013-10-14 14:03:00,
2013-10-14 09:08:00,35.1,28.0,0.00,NNW,346,0.0,0.0,75,0.00,,,0.00,VWS V13.01,2013-10-14 14:08:00,
2013-10-14 09:13:00,35.2,28.1,0.00,NW,317,0.0,0.0,75,0.00,,,0.00,VWS V13.01,2013-10-14 14:13:00,
2013-10-14 09:18:00,35.2,28.1,0.00,NW,326,0.0,0.0,75,0.00,,,0.00,VWS V13.01,2013-10-14 14:18:00,
2013-10-14 09:23:00,35.2,28.1,0.00,NNW,345,0.0,0.0,75,0.00,,,0.00,VWS V13.01,2013-10-14 14:23:00,
2013-10-14 09:28:00,35.2,28.1,0.00,North,353,0.0,0.0,75,0.00,,,0.00,VWS V13.01,2013-10-14 14:28:00,
2013-10-14 09:33:00,35.6,28.5,0.00,North,353,0.0,3.1,75,0.00,,,0.00,VWS V13.01,2013-10-14 14:33:00,
2013-10-14 09:38:00,35.8,28.6,0.00,NNW,337,0.0,0.0,75,0.00,,,0.00,VWS V13.01,2013-10-14 14:38:00,
2013-10-14 09:43:00,36.0,28.8,0.00,North,357,0.0,0.0,75,0.00,,,0.00,VWS V13.01,2013-10-14 14:43:00,
2013-10-14 09:48:00,36.1,29.0,0.00,North,357,0.0,0.0,75,0.00,,,0.00,VWS V13.01,2013-10-14 14:48:00,
2013-10-14 09:53:00,36.5,29.3,0.00,North,357,0.0,0.0,75,0.00,,,0.00,VWS V13.01,2013-10-14 14:53:00,
2013-10-14 09:58:00,36.7,29.5,0.00,North,357,0.0,0.0,75,0.00,,,0.00,VWS V13.01,2013-10-14 14:58:00,
2013-10-14 10:03:00,37.0,29.9,0.00,North,357,0.0,0.0,75,0.00,,,0.00,VWS V13.01,2013-10-14 15:03:00,
2013-10-14 10:08:00,37.4,30.2,0.00,North,357,0.0,0.0,75,0.00,,,0.00,VWS V13.01,2013-10-14 15:08:00,
2013-10-14 10:13:00,37.9,30.7,0.00,North,357,0.0,0.0,75,0.00,,,0.00,VWS V13.01,2013-10-14 15:13:00,
2013-10-14 10:18:00,38.3,31.1,0.00,North,357,0.0,0.0,75,0.00,,,0.00,VWS V13.01,2013-10-14 15:18:00,
2013-10-14 10:23:00,38.7,31.4,0.00,North,357,0.0,0.0,75,0.00,,,0.00,VWS V13.01,2013-10-14 15:23:00,
2013-10-14 10:28:00,39.2,32.0,0.00,North,357,0.0,0.0,75,0.00,,,0.00,VWS V13.01,2013-10-14 15:28:00,
2013-10-14 10:33:00,39.6,32.3,0.00,North,357,0.0,0.0,75,0.00,,,0.00,VWS V13.01,2013-10-14 15:33:00,
2013-10-14 10:38:00,40.1,32.8,0.00,North,353,0.0,3.6,75,0.00,,,0.00,VWS V13.01,2013-10-14 15:38:00,
2013-10-14 10:43:00,40.5,33.2,0.00,North,353,0.0,0.0,75,0.00,,,0.00,VWS V13.01,2013-10-14 15:43:00,
2013-10-14 10:48:00,41.0,33.4,0.00,NNW,329,0.0,0.0,74,0.00,,,0.00,VWS V13.01,2013-10-14 15:48:00,
2013-10-14 10:53:00,41.5,33.9,0.00,ENE,57,0.0,0.0,74,0.00,,,0.00,VWS V13.01,2013-10-14 15:53:00,
2013-10-14 10:58:00,42.3,34.6,0.00,ENE,76,0.0,0.0,74,0.00,,,0.00,VWS V13.01,2013-10-14 15:58:00,
2013-10-14 11:03:00,43.2,35.5,0.00,ENE,61,0.0,0.0,74,0.00,,,0.00,VWS V13.01,2013-10-14 16:03:00,
2013-10-14 11:08:00,43.9,36.1,0.00,ESE,102,0.0,0.0,74,0.00,,,0.00,VWS V13.01,2013-10-14 16:08:00,
2013-10-14 11:13:00,44.6,36.5,0.00,ESE,108,0.0,0.0,73,0.00,,,0.00,VWS V13.01,2013-10-14 16:13:00,
2013-10-14 11:18:00,45.1,35.6,0.00,East,84,0.0,0.0,69,0.00,,,0.00,VWS V13.01,2013-10-14 16:18:00,
2013-10-14 11:23:00,45.5,34.8,0.00,ENE,70,0.0,0.0,66,0.00,,,0.00,VWS V13.01,2013-10-14 16:23:00,
2013-10-14 11:28:00,46.0,34.2,0.00,ESE,102,0.0,0.0,63,0.00,,,0.00,VWS V13.01,2013-10-14 16:28:00,
2013-10-14 11:33:00,46.2,33.5,0.00,NNE,12,0.0,0.0,61,0.00,,,0.00,VWS V13.01,2013-10-14 16:33:00,
2013-10-14 11:38:00,46.6,33.0,0.00,North,3,0.0,0.0,59,0.00,,,0.00,VWS V13.01,2013-10-14 16:38:00,
2013-10-14 11:43:00,46.9,32.5,0.00,North,7,0.0,0.0,57,0.00,,,0.00,VWS V13.01,2013-10-14 16:43:00,
2013-10-14 11:48:00,47.1,31.8,0.00,East,80,0.0,0.0,55,0.00,,,0.00,VWS V13.01,2013-10-14 16:48:00,
2013-10-14 11:53:00,47.5,31.7,0.00,North,6,0.0,0.0,54,0.00,,,0.00,VWS V13.01,2013-10-14 16:53:00,
2013-10-14 11:58:00,47.8,31.5,0.00,NE,43,0.0,0.0,53,0.00,,,0.00,VWS V13.01,2013-10-14 16:58:00,
2013-10-14 12:03:00,47.8,30.6,0.00,ENE,67,0.0,0.0,51,0.00,,,0.00,VWS V13.01,2013-10-14 17:03:00,
2013-10-14 12:08:00,48.0,30.3,0.00,NNW,343,0.0,0.0,50,0.00,,,0.00,VWS V13.01,2013-10-14 17:08:00,
2013-10-14 12:13:00,48.2,30.0,0.00,East,90,0.0,0.0,49,0.00,,,0.00,VWS V13.01,2013-10-14 17:13:00,
2013-10-14 12:18:00,48.7,29.9,0.00,East,101,0.0,0.0,48,0.00,,,0.00,VWS V13.01,2013-10-14 17:18:00,
2013-10-14 12:23:00,49.1,29.8,0.00,ENE,69,0.0,0.0,47,0.00,,,0.00,VWS V13.01,2013-10-14 17:23:00,
2013-10-14 12:28:00,49.8,28.8,0.00,ENE,68,0.0,0.0,44,0.00,,,0.00,VWS V13.01,2013-10-14 17:28:00,
2013-10-14 12:33:00,50.0,26.6,0.00,East,101,0.0,0.0,40,0.00,,,0.00,VWS V13.01,2013-10-14 17:33:00,
2013-10-14 12:38:00,50.2,26.8,0.00,ESE,104,0.0,0.0,40,0.00,,,0.00,VWS V13.01,2013-10-14 17:38:00,
2013-10-14 12:43:00,50.2,25.6,0.00,East,100,0.0,0.0,38,0.00,,,0.00,VWS V13.01,2013-10-14 17:43:00,
2013-10-14 12:48:00,50.5,26.5,0.00,East,100,0.0,0.0,39,0.00,,,0.00,VWS V13.01,2013-10-14 17:48:00,
2013-10-14 12:53:00,50.9,26.2,0.00,ESE,105,0.0,0.0,38,0.00,,,0.00,VWS V13.01,2013-10-14 17:53:00,
2013-10-14 12:58:00,51.1,25.7,0.00,East,100,5.4,5.4,37,0.00,,,0.00,VWS V13.01,2013-10-14 17:58:00,
2013-10-14 13:03:00,51.3,25.2,0.00,ESE,108,4.0,5.4,36,0.00,,,0.00,VWS V13.01,2013-10-14 18:03:00,
2013-10-14 13:08:00,51.6,23.5,0.00,SSE,153,5.8,5.8,33,0.00,,,0.00,VWS V13.01,2013-10-14 18:08:00,
2013-10-14 13:13:00,51.8,25.0,0.00,SSE,147,5.4,6.3,35,0.00,,,0.00,VWS V13.01,2013-10-14 18:13:00,
2013-10-14 13:18:00,52.0,21.5,0.00,SE,125,6.3,6.3,30,0.00,,,0.00,VWS V13.01,2013-10-14 18:18:00,
2013-10-14 13:23:00,52.2,24.7,0.00,ENE,77,0.0,5.4,34,0.00,,,0.00,VWS V13.01,2013-10-14 18:23:00,
2013-10-14 13:28:00,52.3,24.8,0.00,ESE,106,0.0,3.1,34,0.00,,,0.00,VWS V13.01,2013-10-14 18:28:00,
2013-10-14 13:33:00,52.3,24.1,0.00,ESE,119,2.2,3.6,33,0.00,,,0.00,VWS V13.01,2013-10-14 18:33:00,
2013-10-14 13:38:00,52.3,25.5,0.00,East,81,0.0,0.0,35,0.00,,,0.00,VWS V13.01,2013-10-14 18:38:00,
2013-10-14 13:43:00,52.5,25.0,0.00,ENE,78,0.0,2.7,34,0.00,,,0.00,VWS V13.01,2013-10-14 18:43:00,
2013-10-14 13:48:00,52.7,26.5,0.00,East,79,0.0,0.0,36,0.00,,,0.00,VWS V13.01,2013-10-14 18:48:00,
2013-10-14 13:53:00,52.7,25.1,0.00,East,97,2.2,3.1,34,0.00,,,0.00,VWS V13.01,2013-10-14 18:53:00,
2013-10-14 13:58:00,52.7,25.1,0.00,ENE,77,2.2,5.8,34,0.00,,,0.00,VWS V13.01,2013-10-14 18:58:00,
2013-10-14 14:03:00,52.7,25.8,0.00,East,94,0.0,3.6,35,0.00,,,0.00,VWS V13.01,2013-10-14 19:03:00,
2013-10-14 14:08:00,52.9,26.0,0.00,ESE,106,0.0,0.0,35,0.00,,,0.00,VWS V13.01,2013-10-14 19:08:00,
2013-10-14 14:14:00,53.1,25.5,0.00,ESE,112,4.0,4.0,34,0.00,,,0.00,VWS V13.01,2013-10-14 19:14:00,
2013-10-14 14:19:00,53.1,24.7,0.00,ESE,115,2.7,3.1,33,0.00,,,0.00,VWS V13.01,2013-10-14 19:19:00,
2013-10-14 14:24:00,53.2,25.6,0.00,ESE,118,2.2,3.1,34,0.00,,,0.00,VWS V13.01,2013-10-14 19:24:00,
2013-10-14 14:29:00,53.4,26.5,0.00,ESE,116,3.6,3.6,35,0.00,,,0.00,VWS V13.01,2013-10-14 19:29:00,
2013-10-14 14:34:00,53.6,25.2,0.00,ESE,108,0.0,4.9,33,0.00,,,0.00,VWS V13.01,2013-10-14 19:34:00,
2013-10-14 14:39:00,53.8,25.4,0.00,ESE,104,0.0,4.0,33,0.00,,,0.00,VWS V13.01,2013-10-14 19:39:00,
2013-10-14 14:44:00,53.8,23.1,0.00,ESE,110,5.4,6.3,30,0.00,,,0.00,VWS V13.01,2013-10-14 19:44:00,
2013-10-14 14:49:00,54.3,22.8,0.00,SE,126,6.3,7.6,29,0.00,,,0.00,VWS V13.01,2013-10-14 19:49:00,
2013-10-14 14:54:00,54.7,21.4,0.00,SE,136,5.8,6.3,27,0.00,,,0.00,VWS V13.01,2013-10-14 19:54:00,
2013-10-14 14:59:00,55.0,21.7,0.00,SSE,165,8.1,8.3,27,0.00,,,0.00,VWS V13.01,2013-10-14 19:59:00,
2013-10-14 15:04:00,55.2,21.8,0.00,ESE,104,5.4,6.3,27,0.00,,,0.00,VWS V13.01,2013-10-14 20:04:00,
2013-10-14 15:09:00,55.2,21.8,0.00,SSE,151,4.9,5.8,27,0.00,,,0.00,VWS V13.01,2013-10-14 20:09:00,
2013-10-14 15:14:00,55.4,22.0,0.00,ESE,112,6.3,8.3,27,0.00,,,0.00,VWS V13.01,2013-10-14 20:14:00,
2013-10-14 15:19:00,55.4,22.0,0.00,SE,133,5.4,8.1,27,0.00,,,0.00,VWS V13.01,2013-10-14 20:19:00,
2013-10-14 15:24:00,55.6,21.3,0.00,ESE,118,8.3,8.3,26,0.00,,,0.00,VWS V13.01,2013-10-14 20:24:00,
2013-10-14 15:29:00,55.6,22.1,0.00,SSE,159,8.3,8.3,27,0.00,,,0.00,VWS V13.01,2013-10-14 20:29:00,
2013-10-14 15:34:00,55.4,22.0,0.00,SE,134,7.2,8.3,27,0.00,,,0.00,VWS V13.01,2013-10-14 20:34:00,
2013-10-14 15:39:00,55.6,22.1,0.00,ESE,109,6.3,7.6,27,0.00,,,0.00,VWS V13.01,2013-10-14 20:39:00,
2013-10-14 15:44:00,55.6,22.1,0.00,ESE,102,5.4,6.7,27,0.00,,,0.00,VWS V13.01,2013-10-14 20:44:00,
2013-10-14 15:49:00,55.6,21.3,0.00,SE,139,5.8,6.7,26,0.00,,,0.00,VWS V13.01,2013-10-14 20:49:00,
2013-10-14 15:54:00,55.6,22.1,0.00,East,81,5.8,9.6,27,0.00,,,0.00,VWS V13.01,2013-10-14 20:54:00,
2013-10-14 15:59:00,55.6,22.1,0.00,ESE,107,6.3,8.3,27,0.00,,,0.00,VWS V13.01,2013-10-14 20:59:00,
2013-10-14 16:02:00,55.8,21.4,0.00,ESE,102,7.6,8.3,26,0.00,,,0.00,VWS V13.01,2013-10-14 21:02:00,
2013-10-14 16:07:00,55.8,22.3,0.00,East,101,10.1,10.1,27,0.00,,,0.00,VWS V13.01,2013-10-14 21:07:00,
2013-10-14 16:12:00,55.9,22.5,0.00,ESE,105,8.1,8.1,27,0.00,,,0.00,VWS V13.01,2013-10-14 21:12:00,
2013-10-14 16:17:00,55.9,22.5,0.00,ESE,120,10.1,10.5,27,0.00,,,0.00,VWS V13.01,2013-10-14 21:17:00,
2013-10-14 16:22:00,55.9,22.5,0.00,East,95,10.1,10.1,27,0.00,,,0.00,VWS V13.01,2013-10-14 21:22:00,
2013-10-14 16:27:00,55.8,22.3,0.00,ESE,103,8.1,8.7,27,0.00,,,0.00,VWS V13.01,2013-10-14 21:27:00,
2013-10-14 16:32:00,55.9,22.5,0.00,ESE,107,8.1,8.3,27,0.00,,,0.00,VWS V13.01,2013-10-14 21:32:00,
2013-10-14 16:37:00,55.8,22.3,0.00,ESE,103,4.9,5.8,27,0.00,,,0.00,VWS V13.01,2013-10-14 21:37:00,
2013-10-14 16:42:00,55.8,22.3,0.00,ESE,105,8.1,8.3,27,0.00,,,0.00,VWS V13.01,2013-10-14 21:42:00,
2013-10-14 16:47:00,55.8,22.3,0.00,East,96,5.4,6.3,27,0.00,,,0.00,VWS V13.01,2013-10-14 21:47:00,
2013-10-14 16:52:00,55.8,22.3,0.00,ESE,110,6.3,6.7,27,0.00,,,0.00,VWS V13.01,2013-10-14 21:52:00,
2013-10-14 16:57:00,55.8,22.3,0.00,ESE,103,6.7,8.3,27,0.00,,,0.00,VWS V13.01,2013-10-14 21:57:00,
2013-10-14 17:02:00,55.8,23.2,0.00,ESE,104,5.4,8.1,28,0.00,,,0.00,VWS V13.01,2013-10-14 22:02:00,
2013-10-14 17:07:00,55.8,22.3,0.00,ESE,108,8.3,10.1,27,0.00,,,0.00,VWS V13.01,2013-10-14 22:07:00,
2013-10-14 17:12:00,55.8,22.3,0.00,East,101,7.6,8.7,27,0.00,,,0.00,VWS V13.01,2013-10-14 22:12:00,
2013-10-14 17:17:00,55.8,23.2,0.00,ESE,103,6.3,6.3,28,0.00,,,0.00,VWS V13.01,2013-10-14 22:17:00,
2013-10-14 17:22:00,55.8,22.3,0.00,ESE,104,7.6,8.7,27,0.00,,,0.00,VWS V13.01,2013-10-14 22:22:00,
2013-10-14 17:27:00,55.8,22.3,0.00,ESE,110,8.1,8.1,27,0.00,,,0.00,VWS V13.01,2013-10-14 22:27:00,
2013-10-14 17:32:00,55.8,23.2,0.00,ESE,116,6.3,7.6,28,0.00,,,0.00,VWS V13.01,2013-10-14 22:32:00,
2013-10-14 17:37:00,55.8,23.2,0.00,ESE,102,6.3,6.3,28,0.00,,,0.00,VWS V13.01,2013-10-14 22:37:00,
2013-10-14 17:42:00,55.6,22.1,0.00,East,99,0.0,3.6,27,0.00,,,0.00,VWS V13.01,2013-10-14 22:42:00,
2013-10-14 17:47:00,55.4,22.0,0.00,ESE,110,4.9,5.8,27,0.00,,,0.00,VWS V13.01,2013-10-14 22:47:00,
2013-10-14 17:52:00,55.4,22.9,0.00,East,98,4.0,4.9,28,0.00,,,0.00,VWS V13.01,2013-10-14 22:52:00,
2013-10-14 17:57:00,55.4,22.9,0.00,ESE,105,8.1,8.1,28,0.00,,,0.00,VWS V13.01,2013-10-14 22:57:00,
2013-10-14 18:02:00,55.4,22.9,0.00,ESE,103,6.3,6.3,28,0.00,,,0.00,VWS V13.01,2013-10-14 23:02:00,
2013-10-14 18:07:00,55.4,22.9,0.00,ESE,103,2.7,6.3,28,0.00,,,0.00,VWS V13.01,2013-10-14 23:07:00,
2013-10-14 18:12:00,55.2,23.5,0.00,East,98,4.0,5.4,29,0.00,,,0.00,VWS V13.01,2013-10-14 23:12:00,
2013-10-14 18:17:00,55.2,23.5,0.00,East,101,5.8,5.8,29,0.00,,,0.00,VWS V13.01,2013-10-14 23:17:00,
2013-10-14 18:22:00,55.0,22.5,0.00,ESE,106,5.8,5.8,28,0.00,,,0.00,VWS V13.01,2013-10-14 23:22:00,
2013-10-14 18:27:00,54.9,22.4,0.00,East,98,4.0,4.0,28,0.00,,,0.00,VWS V13.01,2013-10-14 23:27:00,
2013-10-14 18:32:00,54.7,22.2,0.00,ESE,110,3.1,4.9,28,0.00,,,0.00,VWS V13.01,2013-10-14 23:32:00,
2013-10-14 18:37:00,54.5,22.9,0.00,ESE,107,5.4,6.3,29,0.00,,,0.00,VWS V13.01,2013-10-14 23:37:00,
2013-10-14 18:42:00,54.5,23.7,0.00,ESE,103,7.2,7.2,30,0.00,,,0.00,VWS V13.01,2013-10-14 23:42:00,
2013-10-14 18:47:00,54.5,22.9,0.00,East,98,0.0,4.9,29,0.00,,,0.00,VWS V13.01,2013-10-14 23:47:00,
2013-10-14 18:52:00,54.5,23.7,0.00,East,101,4.9,5.4,30,0.00,,,0.00,VWS V13.01,2013-10-14 23:52:00,
2013-10-14 18:57:00,54.3,22.8,0.00,ESE,118,2.2,2.7,29,0.00,,,0.00,VWS V13.01,2013-10-14 23:57:00,
2013-10-14 19:02:00,54.0,21.6,0.00,ESE,108,3.6,4.9,28,0.00,,,0.00,VWS V13.01,2013-10-15 00:02:00,
2013-10-14 19:07:00,54.0,22.5,0.00,ESE,106,4.9,5.8,29,0.00,,,0.00,VWS V13.01,2013-10-15 00:07:00,
2013-10-14 19:12:00,53.8,22.3,0.00,ESE,106,3.6,4.0,29,0.00,,,0.00,VWS V13.01,2013-10-15 00:12:00,
2013-10-14 19:17:00,54.0,23.2,0.00,ESE,104,3.6,4.0,30,0.00,,,0.00,VWS V13.01,2013-10-15 00:17:00,
2013-10-14 19:22:00,53.8,22.3,0.00,East,98,3.6,5.8,29,0.00,,,0.00,VWS V13.01,2013-10-15 00:22:00,
2013-10-14 19:27:00,53.6,22.1,0.00,ESE,104,2.2,3.6,29,0.00,,,0.00,VWS V13.01,2013-10-15 00:27:00,
2013-10-14 19:32:00,53.4,22.8,0.00,ESE,104,4.0,4.0,30,0.00,,,0.00,VWS V13.01,2013-10-15 00:32:00,
2013-10-14 19:37:00,53.2,22.6,0.00,East,100,3.1,4.0,30,0.00,,,0.00,VWS V13.01,2013-10-15 00:37:00,
2013-10-14 19:42:00,53.2,23.4,0.00,ESE,103,4.0,5.4,31,0.00,,,0.00,VWS V13.01,2013-10-15 00:42:00,
2013-10-14 19:47:00,53.2,23.4,0.00,ESE,106,4.0,4.9,31,0.00,,,0.00,VWS V13.01,2013-10-15 00:47:00,
2013-10-14 19:52:00,53.2,24.2,0.00,ESE,102,5.4,5.4,32,0.00,,,0.00,VWS V13.01,2013-10-15 00:52:00,
2013-10-14 19:57:00,53.2,23.4,0.00,ESE,104,5.4,5.4,31,0.00,,,0.00,VWS V13.01,2013-10-15 00:57:00,
2013-10-14 20:02:00,53.1,24.0,0.00,ESE,106,4.0,4.9,32,0.00,,,0.00,VWS V13.01,2013-10-15 01:02:00,
2013-10-14 20:07:00,53.2,23.4,0.00,ESE,108,3.6,5.4,31,0.00,,,0.00,VWS V13.01,2013-10-15 01:07:00,
2013-10-14 20:12:00,53.1,23.2,0.00,East,101,3.1,4.0,31,0.00,,,0.00,VWS V13.01,2013-10-15 01:12:00,
2013-10-14 20:17:00,53.1,23.2,0.00,ESE,104,5.4,5.4,31,0.00,,,0.00,VWS V13.01,2013-10-15 01:17:00,
2013-10-14 20:22:00,53.1,24.0,0.00,ESE,114,5.8,5.8,32,0.00,,,0.00,VWS V13.01,2013-10-15 01:22:00,
2013-10-14 20:27:00,53.2,23.4,0.00,ESE,106,5.8,6.7,31,0.00,,,0.00,VWS V13.01,2013-10-15 01:27:00,
2013-10-14 20:32:00,53.4,22.8,0.00,ESE,107,6.3,7.6,30,0.00,,,0.00,VWS V13.01,2013-10-15 01:32:00,
2013-10-14 20:37:00,53.4,23.6,0.00,ESE,115,7.2,8.7,31,0.00,,,0.00,VWS V13.01,2013-10-15 01:37:00,
2013-10-14 20:42:00,53.6,23.7,0.00,East,101,8.7,8.7,31,0.00,,,0.00,VWS V13.01,2013-10-15 01:42:00,
2013-10-14 20:47:00,53.4,22.8,0.00,SE,136,8.3,10.1,30,0.00,,,0.00,VWS V13.01,2013-10-15 01:47:00,
2013-10-14 20:52:00,53.4,24.3,0.00,ESE,115,12.8,12.8,32,0.00,,,0.00,VWS V13.01,2013-10-15 01:52:00,
2013-10-14 20:57:00,53.4,25.1,0.00,ESE,102,7.6,8.3,33,0.00,,,0.00,VWS V13.01,2013-10-15 01:57:00,
2013-10-14 21:02:00,53.4,25.1,0.00,ESE,122,5.8,10.1,33,0.00,,,0.00,VWS V13.01,2013-10-15 02:02:00,
2013-10-14 21:07:00,53.2,23.4,0.00,East,101,9.2,9.2,31,0.00,,,0.00,VWS V13.01,2013-10-15 02:07:00,
2013-10-14 21:12:00,53.2,24.2,0.00,ESE,106,8.1,11.0,32,0.00,,,0.00,VWS V13.01,2013-10-15 02:12:00,
2013-10-14 21:17:00,53.2,24.9,0.00,ESE,105,8.3,8.3,33,0.00,,,0.00,VWS V13.01,2013-10-15 02:17:00,
2013-10-14 21:22:00,53.1,24.7,0.00,East,99,8.7,8.7,33,0.00,,,0.00,VWS V13.01,2013-10-15 02:22:00,
2013-10-14 21:27:00,53.2,24.9,0.00,East,99,8.3,12.8,33,0.00,,,0.00,VWS V13.01,2013-10-15 02:27:00,
2013-10-14 21:32:00,53.2,24.9,0.00,East,89,7.6,11.0,33,0.00,,,0.00,VWS V13.01,2013-10-15 02:32:00,
2013-10-14 21:37:00,53.2,27.0,0.00,ESE,110,8.7,8.7,36,0.00,,,0.00,VWS V13.01,2013-10-15 02:37:00,
2013-10-14 21:42:00,53.1,26.1,0.00,East,100,11.0,11.0,35,0.00,,,0.00,VWS V13.01,2013-10-15 02:42:00,
2013-10-14 21:47:00,53.1,25.5,0.00,ESE,110,12.8,12.8,34,0.00,,,0.00,VWS V13.01,2013-10-15 02:47:00,
2013-10-14 21:52:00,53.1,26.1,0.00,East,100,11.0,12.3,35,0.00,,,0.00,VWS V13.01,2013-10-15 02:52:00,
2013-10-14 21:57:00,53.1,26.1,0.00,SE,127,10.5,10.5,35,0.00,,,0.00,VWS V13.01,2013-10-15 02:57:00,
2013-10-14 22:02:00,53.1,25.5,0.00,SE,136,11.0,12.8,34,0.00,,,0.00,VWS V13.01,2013-10-15 03:02:00,
2013-10-14 22:07:00,53.1,26.8,0.00,East,100,8.1,8.1,36,0.00,,,0.00,VWS V13.01,2013-10-15 03:07:00,
2013-10-14 22:12:00,52.9,26.7,0.00,ESE,109,8.3,10.1,36,0.00,,,0.00,VWS V13.01,2013-10-15 03:12:00,
2013-10-14 22:17:00,52.9,26.7,0.00,East,93,12.3,16.3,36,0.00,,,0.00,VWS V13.01,2013-10-15 03:17:00,
2013-10-14 22:22:00,52.9,26.7,0.00,ESE,112,6.7,12.3,36,0.00,,,0.00,VWS V13.01,2013-10-15 03:22:00,
2013-10-14 22:27:00,52.9,26.7,0.00,SE,125,17.4,17.4,36,0.00,,,0.00,VWS V13.01,2013-10-15 03:27:00,
2013-10-14 22:32:00,52.9,26.7,0.00,ESE,110,10.1,11.0,36,0.00,,,0.00,VWS V13.01,2013-10-15 03:32:00,
2013-10-14 22:37:00,52.7,26.5,0.00,SE,125,8.7,13.2,36,0.00,,,0.00,VWS V13.01,2013-10-15 03:37:00,
2013-10-14 22:42:00,52.7,26.5,0.00,SE,133,10.5,13.2,36,0.00,,,0.00,VWS V13.01,2013-10-15 03:42:00,
2013-10-14 22:47:00,52.7,27.2,0.00,SE,132,10.1,13.2,37,0.00,,,0.00,VWS V13.01,2013-10-15 03:47:00,
2013-10-14 22:52:00,52.7,27.2,0.00,SSE,150,10.5,10.5,37,0.00,,,0.00,VWS V13.01,2013-10-15 03:52:00,
2013-10-14 22:57:00,52.7,27.2,0.00,SE,133,11.9,11.9,37,0.00,,,0.00,VWS V13.01,2013-10-15 03:57:00,
2013-10-14 23:01:00,52.3,26.2,0.00,ESE,123,10.1,15.4,36,0.00,,,0.00,VWS V13.01,2013-10-15 04:01:00,
2013-10-14 23:06:00,52.3,26.9,0.00,ESE,114,10.5,12.8,37,0.00,,,0.00,VWS V13.01,2013-10-15 04:06:00,
2013-10-14 23:11:00,52.2,26.0,0.00,ESE,120,9.6,12.3,36,0.00,,,0.00,VWS V13.01,2013-10-15 04:11:00,
2013-10-14 23:16:00,52.2,26.0,0.00,ESE,113,15.4,15.4,36,0.00,,,0.00,VWS V13.01,2013-10-15 04:16:00,
2013-10-14 23:21:00,52.2,26.0,0.00,ESE,110,16.8,16.8,36,0.00,,,0.00,VWS V13.01,2013-10-15 04:21:00,
2013-10-14 23:26:00,52.0,25.9,0.00,SSE,159,14.5,14.5,36,0.00,,,0.00,VWS V13.01,2013-10-15 04:26:00,
2013-10-14 23:31:00,51.8,25.7,0.00,ESE,122,8.1,10.1,36,0.00,,,0.00,VWS V13.01,2013-10-15 04:31:00,
2013-10-14 23:36:00,51.8,27.0,0.00,South,169,15.4,15.9,38,0.00,,,0.00,VWS V13.01,2013-10-15 04:36:00,
2013-10-14 23:41:00,51.8,26.4,0.00,ESE,107,11.0,15.0,37,0.00,,,0.00,VWS V13.01,2013-10-15 04:41:00,
2013-10-14 23:46:00,51.6,26.2,0.00,ESE,111,13.6,13.6,37,0.00,,,0.00,VWS V13.01,2013-10-15 04:46:00,
2013-10-14 23:51:00,51.4,26.0,0.00,SE,139,17.0,17.0,37,0.00,,,0.00,VWS V13.01,2013-10-15 04:51:00,
2013-10-14 23:56:00,51.3,25.9,0.00,SSE,156,7.6,13.2,37,0.00,,,0.00,VWS V13.01,2013-10-15 04:56:00,